Time;durP1;ratioP1;P1;durP2;ratioP2;P2;SDS_P1;SDS_P2;PMS_P1;PMS_P2;Temp;Humidity;BMP_temperature;BMP_pressure;BME280_temperature;BME280_humidity;BME280_pressure;Samples;Min_cycle;Max_cycle;Signal;HPM_P1;HPM_P2
2024/03/12 00:01:07;;;;;;;2.60;2.40;;;7.80;99.90;;;;;;5021876;28;20277;-86
2024/03/12 00:03:33;;;;;;;2.80;2.60;;;7.90;99.90;;;;;;5013842;28;20480;-87
2024/03/12 00:05:59;;;;;;;3.83;2.60;;;7.60;99.90;;;;;;5013691;28;20199;-85
2024/03/12 00:08:27;;;;;;;3.65;2.58;;;7.60;99.90;;;;;;5016560;28;20425;-86
2024/03/12 00:10:53;;;;;;;3.72;2.40;;;7.10;99.90;;;;;;5017618;28;20537;-86
2024/03/12 00:13:19;;;;;;;2.80;2.20;;;7.30;99.90;;;;;;5015970;28;20187;-86
2024/03/12 00:15:46;;;;;;;2.60;2.20;;;7.50;99.90;;;;;;5017344;28;20322;-86
2024/03/12 00:18:12;;;;;;;4.68;2.95;;;7.50;99.90;;;;;;5014184;28;20251;-86
2024/03/12 00:20:39;;;;;;;2.47;2.13;;;7.50;99.90;;;;;;5028237;28;20314;-85
2024/03/12 00:23:08;;;;;;;3.55;2.25;;;7.50;99.90;;;;;;5030976;28;20179;-85
2024/03/12 00:25:34;;;;;;;3.72;2.97;;;8.00;99.90;;;;;;5031077;28;20713;-86
2024/03/12 00:28:00;;;;;;;5.20;2.77;;;7.40;99.90;;;;;;5029914;28;20201;-86
2024/03/12 00:30:27;;;;;;;3.10;2.80;;;7.50;99.90;;;;;;5025232;28;20179;-86
2024/03/12 00:32:57;;;;;;;5.10;2.50;;;7.50;99.90;;;;;;5017691;28;20555;-86
2024/03/12 00:35:32;;;;;;;4.10;2.83;;;7.30;99.90;;;;;;5010058;28;20541;-86
2024/03/12 00:37:58;;;;;;;3.08;2.80;;;7.30;99.90;;;;;;5012334;28;20190;-86
2024/03/12 00:40:36;;;;;;;4.07;2.83;;;7.20;99.90;;;;;;5014077;28;20199;-85
2024/03/12 00:43:03;;;;;;;2.85;2.65;;;7.20;99.90;;;;;;5028698;28;20665;-85
2024/03/12 00:45:36;;;;;;;2.85;2.65;;;6.90;99.90;;;;;;5009227;28;20206;-86
2024/03/12 00:48:02;;;;;;;4.70;2.95;;;7.70;99.90;;;;;;5009815;28;20540;-86
2024/03/12 00:50:28;;;;;;;2.97;2.70;;;7.20;99.90;;;;;;5014143;28;20194;-85
2024/03/12 00:52:53;;;;;;;3.20;2.90;;;7.10;99.90;;;;;;5010953;28;20186;-86
2024/03/12 00:55:20;;;;;;;3.13;2.80;;;7.20;99.90;;;;;;5011998;28;20256;-85
2024/03/12 00:57:48;;;;;;;2.75;2.55;;;6.70;99.90;;;;;;5015146;28;20186;-85
2024/03/12 01:00:17;;;;;;;6.82;3.00;;;7.40;99.90;;;;;;5012338;28;20183;-85
2024/03/12 01:02:49;;;;;;;2.55;2.35;;;7.10;99.90;;;;;;5016656;28;20183;-86
2024/03/12 01:05:20;;;;;;;3.33;2.80;;;7.00;99.90;;;;;;5008884;28;20209;-86
2024/03/12 01:07:47;;;;;;;3.33;2.60;;;7.50;99.90;;;;;;5018241;28;20179;-87
2024/03/12 01:10:13;;;;;;;3.42;2.95;;;7.30;99.90;;;;;;5014104;28;20656;-86
2024/03/12 01:12:43;;;;;;;3.30;3.00;;;6.50;99.90;;;;;;5012309;28;20189;-86
2024/03/12 01:15:09;;;;;;;3.60;3.05;;;6.90;99.90;;;;;;5028622;28;20277;-86
2024/03/12 01:17:37;;;;;;;3.00;2.40;;;6.90;99.90;;;;;;5011476;28;20278;-86
2024/03/12 01:20:05;;;;;;;2.75;2.55;;;7.40;99.90;;;;;;5029813;28;20196;-86
2024/03/12 01:22:30;;;;;;;3.45;2.90;;;6.80;99.90;;;;;;5007545;28;20179;-86
2024/03/12 01:24:57;;;;;;;3.17;2.87;;;7.00;99.90;;;;;;5029500;28;20285;-86
2024/03/12 01:27:23;;;;;;;4.07;3.42;;;6.50;99.90;;;;;;5018678;28;20213;-86
2024/03/12 01:29:49;;;;;;;3.20;2.90;;;6.80;99.90;;;;;;5015281;28;20274;-86
2024/03/12 01:32:15;;;;;;;3.60;3.30;;;6.80;99.90;;;;;;5021556;28;20736;-86
2024/03/12 01:34:42;;;;;;;2.97;2.67;;;6.90;99.90;;;;;;5019297;28;20183;-86
2024/03/12 01:37:08;;;;;;;3.67;3.38;;;6.20;99.90;;;;;;5031240;28;20545;-86
2024/03/12 01:39:38;;;;;;;3.03;2.83;;;6.50;99.90;;;;;;5032388;28;20187;-86
2024/03/12 01:42:05;;;;;;;3.30;3.00;;;7.00;99.90;;;;;;5051826;28;20201;-86
2024/03/12 01:44:34;;;;;;;3.30;3.00;;;6.20;99.90;;;;;;5033932;28;20181;-87
2024/03/12 01:47:01;;;;;;;6.97;2.85;;;6.40;99.90;;;;;;5006318;28;20245;-86
2024/03/12 01:49:27;;;;;;;3.30;3.00;;;6.40;99.90;;;;;;5011712;28;20183;-85
2024/03/12 01:51:53;;;;;;;3.40;3.10;;;6.40;99.90;;;;;;5013152;28;20272;-86
2024/03/12 01:54:19;;;;;;;3.50;3.20;;;6.50;99.90;;;;;;5019107;28;20682;-85
2024/03/12 01:56:47;;;;;;;2.60;2.40;;;5.90;99.90;;;;;;5029780;28;20754;-86
2024/03/12 01:59:13;;;;;;;3.30;3.00;;;6.20;99.90;;;;;;5011779;28;20199;-86
2024/03/12 02:01:38;;;;;;;5.50;3.73;;;6.30;99.90;;;;;;5031418;28;20203;-86
2024/03/12 02:04:04;;;;;;;3.60;3.30;;;6.50;99.90;;;;;;5011872;28;20176;-86
2024/03/12 02:06:29;;;;;;;3.63;2.83;;;6.60;99.90;;;;;;5017592;28;20572;-86
2024/03/12 02:08:55;;;;;;;4.17;2.97;;;6.40;99.90;;;;;;5037549;28;20213;-86
2024/03/12 02:11:21;;;;;;;3.55;3.35;;;6.40;99.90;;;;;;5015457;28;20194;-86
2024/03/12 02:13:49;;;;;;;3.40;3.10;;;6.50;99.90;;;;;;5016397;28;20186;-86
2024/03/12 02:16:14;;;;;;;3.15;2.92;;;6.40;99.90;;;;;;5014253;28;20211;-86
2024/03/12 02:18:40;;;;;;;3.27;3.00;;;6.50;99.90;;;;;;5014696;28;20187;-86
2024/03/12 02:21:05;;;;;;;4.17;3.73;;;6.50;99.90;;;;;;5020812;28;20687;-85
2024/03/12 02:23:44;;;;;;;3.97;3.63;;;6.40;99.90;;;;;;5014044;28;20183;-84
2024/03/12 02:26:10;;;;;;;3.75;3.45;;;6.40;99.90;;;;;;5037307;28;20207;-84
2024/03/12 02:28:39;;;;;;;2.80;2.60;;;6.50;99.90;;;;;;5024832;28;20201;-85
2024/03/12 02:31:05;;;;;;;3.92;3.30;;;6.50;99.90;;;;;;5016448;28;20187;-85
2024/03/12 02:33:35;;;;;;;3.22;2.92;;;6.80;99.90;;;;;;5033244;28;20244;-85
2024/03/12 02:36:01;;;;;;;3.78;2.95;;;5.90;99.90;;;;;;5013645;28;20207;-85
2024/03/12 02:38:27;;;;;;;3.30;3.00;;;6.20;99.90;;;;;;5022955;28;20178;-85
2024/03/12 02:40:52;;;;;;;3.83;3.53;;;6.50;99.90;;;;;;5018411;28;20463;-85
2024/03/12 02:43:18;;;;;;;3.17;2.97;;;6.30;99.90;;;;;;5016502;28;20187;-85
2024/03/12 02:45:45;;;;;;;3.60;3.30;;;6.30;99.90;;;;;;5016558;28;20226;-87
2024/03/12 02:48:11;;;;;;;3.20;2.75;;;6.40;99.90;;;;;;5034203;28;20185;-85
2024/03/12 02:50:36;;;;;;;3.20;2.90;;;6.50;99.90;;;;;;5019702;28;20190;-86
2024/03/12 02:53:02;;;;;;;3.43;3.13;;;6.40;99.90;;;;;;5011959;28;20866;-86
2024/03/12 02:55:28;;;;;;;3.30;3.00;;;5.70;99.90;;;;;;5037698;28;20257;-86
2024/03/12 02:57:53;;;;;;;2.90;2.70;;;6.00;99.90;;;;;;5020811;28;20186;-86
2024/03/12 03:00:19;;;;;;;3.23;2.93;;;6.30;99.90;;;;;;5030605;28;20199;-86
2024/03/12 03:02:45;;;;;;;4.27;3.20;;;6.10;99.90;;;;;;5022082;28;20177;-86
2024/03/12 03:05:11;;;;;;;2.88;2.67;;;6.00;99.90;;;;;;5023655;28;20449;-86
2024/03/12 03:07:40;;;;;;;3.03;2.72;;;6.00;99.90;;;;;;5023096;28;20231;-86
2024/03/12 03:10:06;;;;;;;3.50;3.20;;;6.00;99.90;;;;;;5018232;28;20205;-85
2024/03/12 03:12:32;;;;;;;2.90;2.70;;;5.50;99.90;;;;;;5010320;28;20187;-85
2024/03/12 03:14:57;;;;;;;3.83;3.30;;;6.50;99.90;;;;;;5016250;28;20187;-86
2024/03/12 03:17:23;;;;;;;4.17;3.30;;;5.60;99.90;;;;;;5012270;28;20243;-85
2024/03/12 03:19:51;;;;;;;3.10;2.90;;;5.50;99.90;;;;;;5013888;28;20215;-85
2024/03/12 03:22:17;;;;;;;3.70;3.40;;;5.60;99.90;;;;;;5016636;28;20245;-85
2024/03/12 03:24:43;;;;;;;3.50;3.23;;;5.40;99.90;;;;;;5023400;28;20179;-86
2024/03/12 03:27:09;;;;;;;3.10;2.90;;;6.40;99.90;;;;;;5015930;28;20206;-86
2024/03/12 03:29:35;;;;;;;4.32;3.70;;;5.50;99.90;;;;;;5012216;28;20187;-86
2024/03/12 03:32:02;;;;;;;3.33;3.00;;;5.50;99.90;;;;;;5015321;28;20185;-86
2024/03/12 03:34:28;;;;;;;3.97;3.13;;;6.30;99.90;;;;;;5010001;28;20179;-85
2024/03/12 03:36:57;;;;;;;3.30;3.00;;;6.20;99.90;;;;;;5016555;28;20288;-87
2024/03/12 03:39:28;;;;;;;8.50;2.92;;;5.60;99.90;;;;;;5027672;28;20188;-87
2024/03/12 03:41:55;;;;;;;4.50;2.95;;;6.00;99.90;;;;;;5021675;28;20202;-86
2024/03/12 03:44:21;;;;;;;3.25;2.80;;;6.40;99.90;;;;;;5009931;28;20182;-85
2024/03/12 03:46:47;;;;;;;3.47;3.17;;;6.50;99.90;;;;;;5016227;28;20549;-86
2024/03/12 03:49:13;;;;;;;3.67;3.30;;;6.50;99.90;;;;;;5013923;28;20194;-87
2024/03/12 03:51:38;;;;;;;2.93;2.73;;;6.60;99.90;;;;;;5010942;28;20276;-85
2024/03/12 03:54:04;;;;;;;4.10;2.83;;;6.50;99.90;;;;;;5018571;28;20198;-85
2024/03/12 03:56:30;;;;;;;2.90;2.67;;;6.80;99.90;;;;;;5013560;28;20699;-86
2024/03/12 03:59:00;;;;;;;2.97;2.78;;;6.40;99.90;;;;;;5013769;28;20210;-85
2024/03/12 04:01:28;;;;;;;3.65;3.22;;;6.70;99.90;;;;;;5017853;28;20215;-85
2024/03/12 04:03:55;;;;;;;4.28;3.30;;;7.30;99.90;;;;;;5020663;28;20185;-86
2024/03/12 04:06:21;;;;;;;4.20;2.92;;;6.80;99.90;;;;;;5015311;28;20745;-86
2024/03/12 04:08:51;;;;;;;3.03;2.75;;;7.00;99.90;;;;;;5014914;28;20183;-86
2024/03/12 04:11:20;;;;;;;3.42;3.15;;;6.90;99.90;;;;;;5026707;28;20186;-86
2024/03/12 04:13:46;;;;;;;3.25;2.85;;;7.00;99.90;;;;;;5012934;28;20202;-86
2024/03/12 04:16:12;;;;;;;3.20;2.90;;;7.40;99.90;;;;;;5011740;28;20211;-86
2024/03/12 04:18:38;;;;;;;3.23;2.93;;;7.10;99.90;;;;;;5012227;28;20198;-85
2024/03/12 04:21:04;;;;;;;3.13;2.93;;;6.80;99.90;;;;;;5027627;28;20199;-85
2024/03/12 04:23:29;;;;;;;3.75;3.38;;;7.40;99.90;;;;;;5033056;28;20441;-85
2024/03/12 04:25:55;;;;;;;4.30;3.20;;;7.20;99.90;;;;;;5022833;28;20567;-85
2024/03/12 04:28:20;;;;;;;3.40;3.10;;;7.70;99.90;;;;;;5011018;28;20179;-87
2024/03/12 04:30:48;;;;;;;3.30;3.00;;;6.70;99.90;;;;;;5011916;28;20241;-86
2024/03/12 04:33:15;;;;;;;3.17;2.88;;;7.30;99.90;;;;;;5012534;28;20214;-86
2024/03/12 04:35:42;;;;;;;2.85;2.65;;;7.30;99.90;;;;;;5018651;28;20207;-85
2024/03/12 04:38:07;;;;;;;2.63;2.42;;;7.80;99.90;;;;;;5011528;28;20253;-85
2024/03/12 04:40:33;;;;;;;2.70;2.50;;;7.90;99.90;;;;;;5017496;28;20685;-86
2024/03/12 04:42:59;;;;;;;3.07;2.67;;;7.60;99.90;;;;;;5014655;28;20462;-86
2024/03/12 04:45:24;;;;;;;3.30;2.90;;;7.80;99.90;;;;;;5025905;28;20784;-84
2024/03/12 04:47:50;;;;;;;3.10;2.90;;;7.10;99.90;;;;;;5020680;28;20675;-83
2024/03/12 04:50:19;;;;;;;2.90;2.70;;;7.80;99.90;;;;;;5034263;28;20544;-84
2024/03/12 04:52:44;;;;;;;3.20;2.90;;;8.10;99.90;;;;;;5015767;28;20436;-86
2024/03/12 04:55:10;;;;;;;4.70;2.80;;;7.80;99.90;;;;;;5049389;22;20229;-85
2024/03/12 04:57:36;;;;;;;3.30;3.00;;;7.80;99.90;;;;;;5030053;28;20442;-85
2024/03/12 05:00:13;;;;;;;4.10;2.90;;;8.00;99.90;;;;;;5029976;28;20182;-86
2024/03/12 05:02:41;;;;;;;2.83;2.55;;;7.70;99.90;;;;;;5030386;28;20189;-84
2024/03/12 05:05:07;;;;;;;3.10;2.80;;;7.90;99.90;;;;;;5038357;28;20630;-87
2024/03/12 05:07:33;;;;;;;3.20;3.00;;;8.10;99.90;;;;;;5025626;28;20294;-85
2024/03/12 05:09:59;;;;;;;3.67;2.73;;;7.70;99.90;;;;;;5029537;28;20526;-85
2024/03/12 05:12:25;;;;;;;3.13;2.83;;;7.90;99.90;;;;;;5032834;28;20187;-86
2024/03/12 05:14:50;;;;;;;3.47;3.17;;;7.90;99.90;;;;;;5027038;28;20626;-87
2024/03/12 05:17:16;;;;;;;5.10;2.90;;;8.20;99.90;;;;;;5027810;28;20251;-87
2024/03/12 05:19:42;;;;;;;5.03;4.50;;;7.70;99.90;;;;;;5027352;28;20178;-85
2024/03/12 05:22:07;;;;;;;3.37;3.07;;;7.80;99.90;;;;;;5030712;28;20256;-87
2024/03/12 05:24:34;;;;;;;2.93;2.60;;;7.90;99.90;;;;;;5029988;28;20274;-86
2024/03/12 05:27:00;;;;;;;4.63;3.03;;;7.80;99.90;;;;;;5028575;28;20207;-86
2024/03/12 05:29:33;;;;;;;5.88;5.38;;;7.80;99.90;;;;;;5025280;28;20205;-86
2024/03/12 05:32:08;;;;;;;4.47;3.17;;;7.80;99.90;;;;;;5022796;28;20209;-85
2024/03/12 05:34:39;;;;;;;4.22;3.70;;;8.30;99.90;;;;;;5026786;28;20194;-87
2024/03/12 05:37:05;;;;;;;3.78;3.47;;;8.10;99.90;;;;;;5026075;28;20216;-85
2024/03/12 05:50:27;;;;;;;2.78;2.58;;;8.60;99.90;;;;;;5026211;28;20201;-85
2024/03/12 05:52:54;;;;;;;3.30;3.00;;;8.40;99.90;;;;;;5032548;28;20198;-85
2024/03/12 05:55:19;;;;;;;4.75;2.80;;;8.30;99.90;;;;;;5036686;28;20234;-85
2024/03/12 05:57:45;;;;;;;4.30;3.33;;;8.90;99.90;;;;;;5035812;28;20225;-85
2024/03/12 06:00:11;;;;;;;3.30;2.70;;;8.20;99.90;;;;;;5034189;28;20197;-85
2024/03/12 06:02:38;;;;;;;3.33;3.05;;;8.60;99.90;;;;;;5028488;28;20194;-86
2024/03/12 06:05:07;;;;;;;5.03;3.30;;;9.10;99.90;;;;;;5036828;28;20209;-85
2024/03/12 06:07:33;;;;;;;3.13;2.83;;;8.70;99.90;;;;;;5032996;28;20183;-85
2024/03/12 06:09:59;;;;;;;3.17;2.87;;;8.60;99.90;;;;;;5034802;28;20892;-85
2024/03/12 06:12:24;;;;;;;2.97;2.77;;;9.00;99.90;;;;;;5034105;28;20186;-85
2024/03/12 06:14:50;;;;;;;3.53;3.23;;;8.60;99.90;;;;;;5029370;28;20201;-85
2024/03/12 06:17:16;;;;;;;5.73;3.60;;;8.50;99.90;;;;;;5033853;28;20208;-86
2024/03/12 06:19:41;;;;;;;2.97;2.63;;;8.50;99.90;;;;;;5027963;28;20575;-87
2024/03/12 06:22:08;;;;;;;3.67;3.20;;;8.50;99.90;;;;;;5040869;28;20565;-88
2024/03/12 06:24:35;;;;;;;7.60;3.35;;;8.80;99.90;;;;;;5037139;28;20197;-85
2024/03/12 06:27:02;;;;;;;4.97;3.70;;;8.60;99.90;;;;;;5037745;28;20660;-85
2024/03/12 06:29:27;;;;;;;5.13;3.10;;;9.00;99.90;;;;;;5034820;28;20201;-85
2024/03/12 06:31:53;;;;;;;7.73;3.23;;;8.70;99.90;;;;;;5035374;28;20175;-84
2024/03/12 06:34:18;;;;;;;2.70;2.50;;;9.10;99.90;;;;;;5035915;28;20187;-85
2024/03/12 06:36:49;;;;;;;4.03;3.20;;;8.80;99.90;;;;;;5033928;28;20203;-85
2024/03/12 06:39:17;;;;;;;3.72;3.00;;;8.60;99.90;;;;;;5034118;28;20197;-83
2024/03/12 06:41:43;;;;;;;4.90;3.88;;;9.20;99.90;;;;;;5046851;28;20204;-84
2024/03/12 06:44:11;;;;;;;3.60;3.30;;;8.70;99.90;;;;;;5031819;28;20191;-83
2024/03/12 06:46:37;;;;;;;3.30;3.00;;;9.00;99.90;;;;;;5040519;28;20269;-83
2024/03/12 06:49:04;;;;;;;3.85;3.15;;;8.90;99.90;;;;;;5032976;28;20261;-85
2024/03/12 06:51:32;;;;;;;3.75;3.40;;;9.10;99.90;;;;;;5035458;28;20184;-84
2024/03/12 06:53:59;;;;;;;4.50;3.60;;;9.20;99.90;;;;;;5042596;28;20201;-86
2024/03/12 06:56:28;;;;;;;3.15;2.90;;;9.20;99.90;;;;;;5036552;28;20215;-87
2024/03/12 06:58:56;;;;;;;4.00;2.47;;;9.30;99.90;;;;;;5030096;28;20508;-86
2024/03/12 07:01:25;;;;;;;3.22;2.92;;;9.30;99.90;;;;;;5028986;28;20215;-86
2024/03/12 07:03:50;;;;;;;2.80;2.60;;;9.20;99.90;;;;;;5031649;28;20259;-84
2024/03/12 07:06:16;;;;;;;2.60;2.40;;;9.20;99.90;;;;;;5035371;28;20226;-87
2024/03/12 07:08:43;;;;;;;3.40;2.53;;;9.10;99.90;;;;;;5036294;28;20179;-85
2024/03/12 07:11:10;;;;;;;4.00;3.00;;;9.30;99.90;;;;;;5032961;28;20428;-84
2024/03/12 07:13:39;;;;;;;3.70;3.15;;;9.40;99.90;;;;;;5036840;28;20330;-84
2024/03/12 07:16:07;;;;;;;3.88;2.40;;;9.60;99.90;;;;;;5029724;28;20215;-86
2024/03/12 07:18:35;;;;;;;2.40;2.20;;;9.70;99.90;;;;;;5034040;28;20184;-86
2024/03/12 07:21:00;;;;;;;2.83;2.33;;;9.50;99.90;;;;;;5029828;28;20732;-86
2024/03/12 07:23:26;;;;;;;2.50;2.30;;;9.60;99.90;;;;;;5026147;28;20301;-84
2024/03/12 07:25:51;;;;;;;5.17;3.47;;;10.00;99.90;;;;;;5036244;28;20710;-87
2024/03/12 07:28:17;;;;;;;3.70;2.60;;;9.90;99.90;;;;;;5034414;28;20198;-89
2024/03/12 07:30:45;;;;;;;2.30;2.10;;;10.20;99.90;;;;;;5025137;28;20219;-89
2024/03/12 07:33:10;;;;;;;2.40;2.20;;;10.00;99.90;;;;;;5030348;28;20196;-88
2024/03/12 07:35:37;;;;;;;4.80;2.00;;;9.90;99.90;;;;;;5021761;28;20257;-88
2024/03/12 07:38:03;;;;;;;3.80;2.45;;;9.90;99.90;;;;;;5033095;28;20641;-88
2024/03/12 07:40:29;;;;;;;3.23;2.30;;;10.10;99.90;;;;;;5028092;28;20241;-86
2024/03/12 07:42:55;;;;;;;2.58;2.17;;;9.80;99.90;;;;;;5027965;28;20417;-85
2024/03/12 07:45:24;;;;;;;1.70;1.60;;;10.00;99.90;;;;;;5029120;28;20188;-84
2024/03/12 07:47:50;;;;;;;5.30;2.40;;;10.00;99.90;;;;;;5028557;28;20564;-89
2024/03/12 07:50:17;;;;;;;2.20;2.10;;;10.30;99.90;;;;;;5025794;28;20216;-88
2024/03/12 07:52:42;;;;;;;4.13;1.95;;;10.10;99.90;;;;;;5026841;28;20177;-89
2024/03/12 07:55:10;;;;;;;2.40;2.20;;;10.00;99.90;;;;;;5028552;28;20203;-89
2024/03/12 07:57:35;;;;;;;2.97;1.85;;;9.90;99.90;;;;;;5032387;28;20220;-87
2024/03/12 08:00:05;;;;;;;2.57;2.17;;;10.20;99.90;;;;;;5026013;28;20184;-87
2024/03/12 08:02:30;;;;;;;2.40;2.20;;;10.00;99.90;;;;;;5031114;28;20752;-89
2024/03/12 08:04:56;;;;;;;2.17;1.63;;;10.00;99.90;;;;;;5027420;28;20276;-87
2024/03/12 08:07:23;;;;;;;1.60;1.50;;;10.50;99.90;;;;;;5030039;28;20199;-88
2024/03/12 08:09:49;;;;;;;2.05;1.88;;;9.90;99.90;;;;;;5033466;28;20198;-89
2024/03/12 08:12:17;;;;;;;1.80;1.70;;;10.40;99.90;;;;;;5029134;28;20286;-88
2024/03/12 08:14:43;;;;;;;1.52;1.42;;;10.50;99.90;;;;;;5025013;28;20195;-88
2024/03/12 08:17:12;;;;;;;1.58;1.48;;;9.80;99.90;;;;;;5025158;28;20268;-87
2024/03/12 08:19:39;;;;;;;1.67;1.58;;;10.10;99.90;;;;;;5031042;28;20208;-89
2024/03/12 08:22:08;;;;;;;3.10;1.45;;;10.00;99.90;;;;;;5030627;28;20208;-90
2024/03/12 08:24:35;;;;;;;1.60;1.48;;;10.50;99.90;;;;;;5030845;28;20196;-89
2024/03/12 08:27:00;;;;;;;1.67;1.40;;;10.30;99.90;;;;;;5035192;28;20232;-88
2024/03/12 08:29:26;;;;;;;1.90;1.47;;;10.20;99.90;;;;;;5024756;28;20217;-89
2024/03/12 08:31:53;;;;;;;1.73;1.50;;;10.30;99.90;;;;;;5013106;28;20203;-89
2024/03/12 08:34:20;;;;;;;1.60;1.50;;;10.30;99.90;;;;;;5020251;28;20184;-88
2024/03/12 08:36:47;;;;;;;2.08;1.38;;;10.10;99.90;;;;;;5023336;28;20210;-90
2024/03/12 08:39:13;;;;;;;2.05;1.60;;;10.40;99.90;;;;;;5032652;28;20202;-86
2024/03/12 08:41:39;;;;;;;1.80;1.50;;;10.00;99.90;;;;;;5023949;28;20212;-89
2024/03/12 08:44:06;;;;;;;1.60;1.50;;;10.10;99.90;;;;;;5030615;28;20306;-89
2024/03/12 08:46:32;;;;;;;2.40;2.20;;;10.10;99.90;;;;;;5030807;28;20207;-87
2024/03/12 08:48:59;;;;;;;1.40;1.30;;;;;;;;;;5038065;28;20217;-91
2024/03/12 08:51:24;;;;;;;2.83;1.50;;;10.10;99.90;;;;;;5037203;28;20194;-89
2024/03/12 08:53:50;;;;;;;1.50;1.40;;;10.40;99.90;;;;;;5046419;28;20231;-90
2024/03/12 08:56:16;;;;;;;2.47;1.50;;;10.40;99.90;;;;;;5027226;28;20781;-88
2024/03/12 08:58:42;;;;;;;2.80;1.60;;;10.70;99.90;;;;;;5020387;28;20188;-89
2024/03/12 09:01:08;;;;;;;1.67;1.47;;;10.50;99.90;;;;;;5017514;28;20224;-88
2024/03/12 09:03:33;;;;;;;1.40;1.27;;;10.40;99.90;;;;;;5023617;28;20210;-89
2024/03/12 09:06:01;;;;;;;3.97;1.50;;;10.70;99.90;;;;;;5018202;28;20667;-88
2024/03/12 09:08:26;;;;;;;1.50;1.20;;;10.60;99.90;;;;;;5026850;28;20188;-87
2024/03/12 09:10:53;;;;;;;1.53;1.37;;;10.50;99.90;;;;;;5025616;28;20574;-87
2024/03/12 09:13:19;;;;;;;1.90;1.52;;;10.60;99.90;;;;;;5034972;28;20630;-89
2024/03/12 09:15:48;;;;;;;2.10;1.90;;;8.50;99.90;;;;;;5036070;28;20226;-91
2024/03/12 09:18:18;;;;;;;4.72;4.22;;;9.50;99.90;;;;;;5030836;28;20202;-90
2024/03/12 09:20:44;;;;;;;1.77;1.67;;;10.70;99.90;;;;;;5023646;28;20212;-88
2024/03/12 09:23:10;;;;;;;1.73;1.63;;;;;;;;;;5025742;28;20188;-89
2024/03/12 09:25:36;;;;;;;2.22;2.00;;;11.00;99.90;;;;;;5020861;28;20437;-91
2024/03/12 09:28:04;;;;;;;2.65;1.75;;;12.10;99.90;;;;;;5032159;28;20210;-91
2024/03/12 09:30:34;;;;;;;3.55;1.52;;;;;;;;;;5028419;28;20326;-88
2024/03/12 09:32:59;;;;;;;2.10;1.90;;;11.10;99.90;;;;;;5034119;28;20185;-86
2024/03/12 09:35:25;;;;;;;2.20;1.60;;;11.10;99.90;;;;;;5041315;28;20266;-89
2024/03/12 09:37:51;;;;;;;2.77;1.90;;;11.00;99.90;;;;;;5045895;28;20266;-90
2024/03/12 09:40:17;;;;;;;2.17;1.93;;;10.80;99.90;;;;;;5029690;28;20656;-93
2024/03/12 09:42:47;;;;;;;2.40;2.20;;;11.50;99.90;;;;;;5024156;28;20195;-91
2024/03/12 09:45:13;;;;;;;2.35;2.15;;;11.10;99.90;;;;;;5021153;28;20741;-91
2024/03/12 09:47:44;;;;;;;3.17;1.90;;;11.50;99.90;;;;;;5018182;28;20185;-89
2024/03/12 09:50:16;;;;;;;3.97;2.78;;;11.10;99.90;;;;;;5021584;28;20198;-90
2024/03/12 09:52:43;;;;;;;3.28;2.40;;;11.10;99.90;;;;;;5021493;28;20253;-89
2024/03/12 09:55:10;;;;;;;2.58;2.30;;;10.90;99.90;;;;;;5025386;28;20214;-91
2024/03/12 09:57:37;;;;;;;4.20;2.65;;;10.80;99.90;;;;;;5033904;28;20193;-89
2024/03/12 10:00:05;;;;;;;2.30;2.10;;;11.40;99.90;;;;;;5008952;28;20197;-91
2024/03/12 10:02:31;;;;;;;2.47;2.28;;;11.10;99.90;;;;;;5026612;28;20311;-88
2024/03/12 10:04:56;;;;;;;3.50;2.20;;;10.80;99.90;;;;;;5033499;28;20283;-89
2024/03/12 10:07:24;;;;;;;2.23;1.70;;;10.70;99.90;;;;;;5025846;28;20216;-88
2024/03/12 10:09:51;;;;;;;2.72;2.20;;;11.00;99.90;;;;;;5023087;28;20815;-94
2024/03/12 10:12:19;;;;;;;2.92;2.25;;;11.10;99.90;;;;;;5027642;28;20455;-91
2024/03/12 10:14:45;;;;;;;2.22;2.03;;;11.00;99.90;;;;;;5022013;28;20662;-88
2024/03/12 10:17:14;;;;;;;2.60;2.20;;;11.10;99.90;;;;;;5016766;28;20209;-88
2024/03/12 10:19:43;;;;;;;3.05;1.80;;;11.30;99.90;;;;;;5016872;28;20182;-87
2024/03/12 10:22:17;;;;;;;3.13;2.45;;;11.00;99.90;;;;;;5026418;28;20214;-88
2024/03/12 10:24:43;;;;;;;5.10;2.35;;;11.30;99.90;;;;;;5025333;28;20182;-86
2024/03/12 10:27:09;;;;;;;4.80;2.20;;;11.40;99.90;;;;;;5023023;28;20217;-86
2024/03/12 10:29:36;;;;;;;2.78;2.40;;;11.00;99.90;;;;;;5014089;28;20204;-91
2024/03/12 10:32:18;;;;;;;4.78;2.55;;;11.50;99.90;;;;;;5022051;28;20252;-88
2024/03/12 10:34:44;;;;;;;3.10;2.78;;;11.30;99.90;;;;;;5023550;28;20255;-89
2024/03/12 10:37:35;;;;;;;1.90;1.70;;;10.70;99.90;;;;;;5029323;28;20210;-87
2024/03/12 10:40:16;;;;;;;1.75;1.50;;;10.90;99.90;;;;;;5051539;28;20451;-89
2024/03/12 10:42:57;;;;;;;2.05;1.58;;;11.10;99.90;;;;;;5022338;28;20309;-88
2024/03/12 10:45:24;;;;;;;2.05;1.85;;;11.10;99.90;;;;;;5030061;28;20245;-89
2024/03/12 10:47:50;;;;;;;2.15;1.95;;;11.10;99.90;;;;;;5028711;28;20574;-88
2024/03/12 10:50:16;;;;;;;2.55;1.95;;;11.40;99.90;;;;;;5026480;28;20182;-90
2024/03/12 10:52:47;;;;;;;1.92;1.50;;;11.30;99.90;;;;;;5029273;28;20193;-90
2024/03/12 10:55:21;;;;;;;2.13;1.92;;;11.50;99.90;;;;;;5028708;28;20212;-87
2024/03/12 10:57:56;;;;;;;1.88;1.75;;;11.40;99.90;;;;;;5024984;28;20184;-86
2024/03/12 11:00:25;;;;;;;1.95;1.50;;;11.40;99.90;;;;;;5037842;28;20290;-87
2024/03/12 11:02:54;;;;;;;2.10;1.80;;;11.50;99.90;;;;;;5035529;28;20222;-84
2024/03/12 11:05:22;;;;;;;2.50;1.85;;;11.50;99.90;;;;;;5033898;28;20340;-87
2024/03/12 11:07:48;;;;;;;1.48;1.13;;;11.60;99.90;;;;;;5037114;28;20690;-90
2024/03/12 11:10:14;;;;;;;1.40;1.30;;;11.60;99.90;;;;;;5026068;28;20184;-86
2024/03/12 11:12:43;;;;;;;1.27;1.17;;;11.30;99.90;;;;;;5024580;28;20658;-88
2024/03/12 11:15:10;;;;;;;2.17;1.48;;;11.30;99.90;;;;;;5022997;28;20456;-91
2024/03/12 11:17:39;;;;;;;1.30;1.20;;;11.30;99.90;;;;;;5024519;28;20194;-90
2024/03/12 11:20:06;;;;;;;2.42;2.22;;;11.80;99.90;;;;;;5026315;28;20189;-89
2024/03/12 11:22:35;;;;;;;3.22;1.83;;;11.60;99.90;;;;;;5021100;28;20222;-88
2024/03/12 11:25:04;;;;;;;8.77;4.30;;;12.20;99.90;;;;;;5024981;28;20305;-87
2024/03/12 11:27:35;;;;;;;2.70;2.33;;;12.10;99.90;;;;;;5013235;28;20218;-90
2024/03/12 11:30:04;;;;;;;2.47;2.00;;;12.10;99.90;;;;;;5028121;28;20258;-89
2024/03/12 11:32:40;;;;;;;2.50;2.25;;;11.70;99.90;;;;;;5023128;28;20192;-89
2024/03/12 11:35:26;;;;;;;3.25;2.42;;;11.50;99.90;;;;;;5010140;28;20193;-89
2024/03/12 11:38:00;;;;;;;2.70;2.20;;;11.50;99.90;;;;;;5019404;28;20264;-89
2024/03/12 11:41:02;;;;;;;2.40;2.15;;;11.80;99.90;;;;;;5021789;28;20239;-89
2024/03/12 11:43:41;;;;;;;2.88;1.90;;;11.90;99.90;;;;;;5033318;28;20613;-89
2024/03/12 11:46:08;;;;;;;2.03;1.63;;;12.10;99.90;;;;;;5035283;28;20698;-89
2024/03/12 11:48:41;;;;;;;2.00;1.55;;;12.20;99.90;;;;;;5015900;28;20271;-90
2024/03/12 11:51:11;;;;;;;2.30;1.80;;;12.50;99.90;;;;;;5019383;28;20221;-89
2024/03/12 11:53:39;;;;;;;2.65;1.77;;;11.90;99.60;;;;;;5016846;28;20198;-90
2024/03/12 11:56:10;;;;;;;1.75;1.50;;;11.90;99.70;;;;;;5018558;28;20270;-90
2024/03/12 11:58:49;;;;;;;2.05;1.85;;;11.50;99.90;;;;;;5023093;28;20294;-90
2024/03/12 12:01:19;;;;;;;3.75;2.90;;;11.90;99.90;;;;;;5022947;28;20229;-90
2024/03/12 12:03:49;;;;;;;5.13;3.72;;;11.00;99.60;;;;;;5020284;28;20199;-89
2024/03/12 12:06:15;;;;;;;5.78;3.30;;;11.30;99.60;;;;;;5025614;28;20647;-87
2024/03/12 12:08:43;;;;;;;5.03;3.58;;;11.80;99.90;;;;;;5014858;28;20220;-88
2024/03/12 12:11:12;;;;;;;4.20;3.80;;;11.70;99.90;;;;;;5026483;28;20247;-90
2024/03/12 12:13:41;;;;;;;6.30;4.45;;;11.80;99.90;;;;;;5024064;28;20189;-90
2024/03/12 12:16:14;;;;;;;8.68;5.90;;;11.60;99.90;;;;;;5015252;28;20228;-90
2024/03/12 12:18:40;;;;;;;7.97;6.13;;;11.20;99.90;;;;;;5027888;28;20629;-88
2024/03/12 12:21:16;;;;;;;7.25;5.50;;;11.30;99.90;;;;;;5023396;28;20232;-89
2024/03/12 12:23:43;;;;;;;7.05;5.10;;;11.10;99.90;;;;;;5017792;28;20264;-88
2024/03/12 12:26:13;;;;;;;5.97;4.60;;;11.10;99.90;;;;;;5020068;28;20202;-88
2024/03/12 12:28:42;;;;;;;5.68;4.15;;;11.20;99.90;;;;;;5035854;28;20184;-87
2024/03/12 12:31:11;;;;;;;3.88;3.33;;;11.30;99.90;;;;;;5015560;28;20201;-87
2024/03/12 12:33:43;;;;;;;3.10;2.33;;;11.30;99.90;;;;;;5031053;28;20196;-86
2024/03/12 12:36:13;;;;;;;3.25;2.95;;;11.50;99.90;;;;;;5025858;28;20213;-87
2024/03/12 12:38:42;;;;;;;2.83;1.90;;;11.80;99.90;;;;;;5016986;28;20183;-87
2024/03/12 12:41:08;;;;;;;15.68;8.93;;;12.00;99.50;;;;;;5015020;28;20245;-87
2024/03/12 12:43:34;;;;;;;2.97;2.30;;;12.00;99.40;;;;;;5018711;28;20213;-86
2024/03/12 12:46:05;;;;;;;2.23;2.03;;;11.80;99.20;;;;;;5020492;28;20746;-87
2024/03/12 12:48:40;;;;;;;3.47;2.80;;;12.10;99.20;;;;;;5022446;28;20680;-87
2024/03/12 12:51:10;;;;;;;5.15;4.03;;;11.60;99.20;;;;;;5025582;28;20192;-86
2024/03/12 12:53:36;;;;;;;4.70;4.03;;;11.60;98.60;;;;;;5020454;28;20193;-87
2024/03/12 12:56:02;;;;;;;5.10;3.92;;;11.80;98.70;;;;;;5018441;28;20260;-86
2024/03/12 12:58:31;;;;;;;8.43;6.27;;;11.60;98.90;;;;;;5021631;28;20190;-87
2024/03/12 13:01:12;;;;;;;8.02;6.05;;;11.60;98.30;;;;;;5023398;28;20475;-86
2024/03/12 13:03:42;;;;;;;9.90;7.10;;;11.80;98.30;;;;;;5017027;28;20729;-88
2024/03/12 13:06:12;;;;;;;9.52;7.03;;;11.70;97.90;;;;;;5023806;28;20274;-88